Time;durP1;ratioP1;P1;durP2;ratioP2;P2;SDS_P1;SDS_P2;PMS_P1;PMS_P2;Temp;Humidity;BMP_temperature;BMP_pressure;BME280_temperature;BME280_humidity;BME280_pressure;Samples;Min_cycle;Max_cycle;Signal;HPM_P1;HPM_P2
2021/07/06 00:00:09;;;;;;;9.73;7.13;;;;;;;23.77;51.86;98865.78;5112071;28;20035;-67
2021/07/06 00:02:34;;;;;;;8.10;6.45;;;;;;;23.79;51.77;98868.19;5111302;28;20031;-68
2021/07/06 00:05:00;;;;;;;7.72;6.88;;;;;;;23.78;51.85;98866.59;5113485;28;20020;-68
2021/07/06 00:07:26;;;;;;;7.72;6.90;;;;;;;23.94;51.51;98871.53;5111954;28;20447;-68
2021/07/06 00:09:52;;;;;;;7.60;6.80;;;;;;;23.89;51.16;98872.88;5112077;28;20027;-68
2021/07/06 00:12:18;;;;;;;9.23;7.20;;;;;;;23.91;51.11;98866.72;5111226;28;20072;-68
2021/07/06 00:14:45;;;;;;;9.35;6.88;;;;;;;23.90;51.16;98865.91;5113271;28;20035;-68
2021/07/06 00:17:10;;;;;;;7.90;7.10;;;;;;;24.02;50.64;98872.97;5113058;28;20063;-67
2021/07/06 00:19:36;;;;;;;7.40;6.70;;;;;;;24.03;50.97;98880.34;5108837;28;20055;-68
2021/07/06 00:22:03;;;;;;;8.75;6.68;;;;;;;24.06;50.99;98870.09;5111695;27;20035;-68
2021/07/06 00:24:28;;;;;;;9.23;7.25;;;;;;;24.36;49.86;98879.59;5121666;27;20566;-68
2021/07/06 00:26:53;;;;;;;7.40;6.40;;;;;;;24.40;49.48;98869.69;5111741;28;20068;-68
2021/07/06 00:29:19;;;;;;;9.95;6.97;;;;;;;24.34;49.90;98879.25;5115065;27;20019;-68
2021/07/06 00:31:44;;;;;;;9.88;7.38;;;;;;;24.27;49.98;98876.56;5128468;27;20035;-68
2021/07/06 00:34:10;;;;;;;8.05;6.18;;;;;;;24.15;50.31;98875.19;5124691;27;20509;-68
2021/07/06 00:36:35;;;;;;;8.60;6.85;;;;;;;24.19;50.39;98876.72;5128959;27;20488;-69
2021/07/06 00:39:01;;;;;;;8.07;7.32;;;;;;;24.25;49.76;98880.69;5114043;27;20039;-68
2021/07/06 00:41:28;;;;;;;9.20;6.97;;;;;;;24.10;50.52;98874.47;5110901;28;20060;-68
2021/07/06 00:43:53;;;;;;;13.75;7.20;;;;;;;23.95;50.76;98873.94;5111407;28;20020;-68
2021/07/06 00:46:19;;;;;;;9.05;6.68;;;;;;;23.82;51.41;98870.16;5111102;28;20414;-67
2021/07/06 00:48:44;;;;;;;10.93;7.03;;;;;;;23.80;51.41;98872.66;5111710;28;20127;-68
2021/07/06 00:51:10;;;;;;;7.45;6.75;;;;;;;23.62;51.82;98875.88;5112352;28;20027;-68
2021/07/06 00:53:35;;;;;;;6.50;5.90;;;;;;;23.53;52.14;98877.28;5112390;28;20023;-68
2021/07/06 00:56:01;;;;;;;7.65;6.88;;;;;;;23.37;52.81;98880.06;5111470;28;20040;-68
2021/07/06 00:58:27;;;;;;;8.10;7.22;;;;;;;23.48;52.60;98879.81;5111053;28;20058;-68
2021/07/06 01:00:54;;;;;;;10.35;7.78;;;;;;;23.38;52.73;98875.94;5111061;28;20394;-68
2021/07/06 01:03:19;;;;;;;8.82;7.93;;;;;;;23.08;53.82;98872.81;5103330;27;20028;-67
2021/07/06 01:05:45;;;;;;;9.55;7.80;;;;;;;23.07;53.63;98879.75;5111333;28;20020;-68
2021/07/06 01:08:10;;;;;;;13.50;6.75;;;;;;;23.02;53.44;98874.53;5111968;28;20051;-68
2021/07/06 01:10:36;;;;;;;9.13;7.63;;;;;;;23.03;53.48;98884.69;5111999;28;20015;-67
2021/07/06 01:13:04;;;;;;;8.77;7.13;;;;;;;22.85;54.06;98880.13;5111832;28;20048;-67
2021/07/06 01:15:31;;;;;;;9.18;7.20;;;;;;;22.94;53.88;98884.47;5111177;28;20023;-68
2021/07/06 01:18:08;;;;;;;8.70;7.65;;;;;;;23.03;53.56;98881.84;5110633;28;20063;-67
2021/07/06 01:20:38;;;;;;;7.25;6.63;;;;;;;22.84;53.82;98889.91;5111872;28;20036;-68
2021/07/06 01:23:05;;;;;;;8.55;7.65;;;;;;;22.92;53.38;98882.03;5111979;28;20087;-68
2021/07/06 01:25:35;;;;;;;7.47;6.72;;;;;;;22.89;53.63;98879.25;5110897;28;20059;-68
2021/07/06 01:28:01;;;;;;;;;;;;;;;22.88;53.35;98887.00;5112696;28;20043;-68
2021/07/06 01:30:27;;;;;;;8.13;7.35;;;;;;;22.89;53.34;98877.22;5111930;28;19912;-68
2021/07/06 01:32:52;;;;;;;8.38;7.57;;;;;;;22.91;53.27;98891.84;5111363;28;20039;-67
2021/07/06 01:35:18;;;;;;;8.15;7.45;;;;;;;22.78;53.44;98885.94;5111593;28;20020;-67
2021/07/06 01:37:45;;;;;;;8.48;7.35;;;;;;;22.88;53.02;98880.50;5111836;28;20110;-68
2021/07/06 01:40:13;;;;;;;13.10;8.30;;;;;;;22.84;53.30;98877.69;5111271;28;20026;-68
2021/07/06 01:42:40;;;;;;;11.00;8.32;;;;;;;22.88;53.27;98874.78;5110082;28;20048;-68
2021/07/06 01:45:08;;;;;;;9.73;7.70;;;;;;;22.76;53.72;98881.94;5111324;28;20027;-67
2021/07/06 01:47:45;;;;;;;8.68;7.80;;;;;;;22.76;53.77;98881.94;5111277;28;20153;-68
2021/07/06 01:50:13;;;;;;;8.50;7.60;;;;;;;23.00;53.04;98877.00;5111240;28;20034;-68
2021/07/06 01:52:44;;;;;;;8.23;7.38;;;;;;;22.92;53.09;98881.22;5110955;28;20039;-68
2021/07/06 01:55:13;;;;;;;;;;;;;;;22.98;52.74;98883.16;5111812;28;20055;-67
2021/07/06 01:57:40;;;;;;;11.80;8.05;;;;;;;23.09;52.47;98880.13;5097617;28;19999;-68
2021/07/06 02:00:08;;;;;;;13.15;7.18;;;;;;;23.17;52.45;98880.78;5110424;28;20464;-67
2021/07/06 02:02:34;;;;;;;8.95;7.63;;;;;;;23.06;52.62;98881.00;5111348;28;20062;-67
2021/07/06 02:05:19;;;;;;;10.57;8.00;;;;;;;23.06;52.81;98880.19;5111253;28;20027;-68
2021/07/06 02:07:45;;;;;;;7.93;7.07;;;;;;;23.24;51.96;98888.41;5111599;28;20035;-68
2021/07/06 02:10:13;;;;;;;8.07;7.18;;;;;;;23.20;52.53;98877.06;5109360;28;20030;-68
2021/07/06 02:12:39;;;;;;;12.93;7.53;;;;;;;23.22;52.14;98885.19;5110570;28;20473;-68
2021/07/06 02:15:06;;;;;;;8.55;7.75;;;;;;;23.22;52.21;98877.41;5109760;28;20516;-68
2021/07/06 02:17:31;;;;;;;10.63;8.13;;;;;;;23.27;52.04;98884.69;5111158;28;20055;-68
2021/07/06 02:19:57;;;;;;;8.98;7.40;;;;;;;23.31;52.30;98885.47;5110222;28;20049;-68
2021/07/06 02:22:22;;;;;;;10.23;7.57;;;;;;;23.36;51.53;98890.66;5111257;28;20074;-68
2021/07/06 02:24:48;;;;;;;12.73;8.20;;;;;;;23.33;51.84;98894.38;5110814;28;20055;-68
2021/07/06 02:27:13;;;;;;;11.00;7.45;;;;;;;23.16;52.27;98898.31;5111113;28;20031;-68
2021/07/06 02:29:39;;;;;;;9.75;8.00;;;;;;;23.13;52.33;98897.16;5110094;28;20031;-68
2021/07/06 02:32:04;;;;;;;8.88;7.97;;;;;;;23.18;52.00;98902.34;5109534;28;20097;-69
2021/07/06 02:34:30;;;;;;;10.90;7.45;;;;;;;23.22;52.01;98903.09;5110991;28;20033;-68
2021/07/06 02:36:56;;;;;;;24.77;9.32;;;;;;;23.24;52.11;98897.78;5108870;28;20096;-68
2021/07/06 02:39:21;;;;;;;11.15;8.70;;;;;;;23.29;51.92;98907.91;5110709;28;20035;-68
2021/07/06 02:41:47;;;;;;;9.45;7.88;;;;;;;23.28;51.92;98906.28;5110517;28;20046;-68
2021/07/06 02:44:12;;;;;;;9.23;7.75;;;;;;;23.21;51.98;98912.09;5110728;28;20035;-68
2021/07/06 02:46:38;;;;;;;14.05;8.48;;;;;;;23.26;51.81;98908.72;5109518;28;20389;-68
2021/07/06 02:49:03;;;;;;;9.27;8.38;;;;;;;23.31;51.54;98916.84;5109439;28;20036;-70
2021/07/06 02:51:29;;;;;;;10.70;8.57;;;;;;;23.32;51.47;98904.19;5109266;28;20038;-67
2021/07/06 02:53:54;;;;;;;12.82;8.82;;;;;;;23.53;50.64;98922.09;5111746;28;20462;-68
2021/07/06 02:56:19;;;;;;;11.25;8.35;;;;;;;23.45;50.67;98921.44;5113149;28;20032;-68
2021/07/06 02:58:45;;;;;;;13.15;7.88;;;;;;;23.37;51.23;98917.13;5114622;28;20020;-68
2021/07/06 03:01:10;;;;;;;11.90;8.45;;;;;;;23.35;51.29;98922.44;5114712;28;20034;-68
2021/07/06 03:03:36;;;;;;;12.70;8.57;;;;;;;23.42;50.99;98928.03;5113484;28;20409;-68
2021/07/06 03:06:02;;;;;;;10.13;8.48;;;;;;;23.47;51.04;98929.59;5113538;28;20031;-68
2021/07/06 03:08:30;;;;;;;10.20;7.70;;;;;;;23.39;51.19;98926.84;5114459;28;20402;-68
2021/07/06 03:10:56;;;;;;;11.75;7.88;;;;;;;23.41;51.09;98927.25;5114448;28;20023;-68
2021/07/06 03:13:22;;;;;;;8.32;7.45;;;;;;;23.40;51.03;98927.66;5112108;28;20122;-68
2021/07/06 03:15:47;;;;;;;10.35;7.53;;;;;;;23.41;51.00;98932.13;5114200;28;20034;-68
2021/07/06 03:18:13;;;;;;;8.75;7.95;;;;;;;23.28;51.27;98940.50;5114268;28;20099;-68
2021/07/06 03:20:39;;;;;;;9.77;8.38;;;;;;;23.19;51.85;98945.97;5114128;28;20481;-68
2021/07/06 03:23:04;;;;;;;11.88;8.32;;;;;;;23.28;51.21;98949.88;5113126;28;20580;-68
2021/07/06 03:25:33;;;;;;;12.45;8.57;;;;;;;23.16;51.88;98949.66;5112947;28;20020;-68
2021/07/06 03:28:00;;;;;;;9.82;8.18;;;;;;;22.97;52.13;98949.97;5113898;28;20036;-68
2021/07/06 03:30:28;;;;;;;14.50;8.52;;;;;;;22.82;52.73;98943.72;5114079;27;20024;-68
2021/07/06 03:32:55;;;;;;;11.00;8.18;;;;;;;22.73;53.22;98952.00;5113595;28;20138;-68
2021/07/06 03:35:21;;;;;;;17.17;8.52;;;;;;;22.44;54.01;98956.06;5113761;28;20119;-68
2021/07/06 03:37:47;;;;;;;12.82;8.90;;;;;;;22.33;54.71;98951.75;5114275;28;20039;-67
2021/07/06 03:40:13;;;;;;;13.77;10.40;;;;;;;22.19;55.16;98964.94;5103171;28;20100;-69
2021/07/06 03:42:39;;;;;;;13.85;9.77;;;;;;;22.16;55.51;98962.94;5096089;28;20482;-68
2021/07/06 03:45:07;;;;;;;16.00;9.77;;;;;;;22.21;55.42;98970.22;5111244;28;20058;-68
2021/07/06 03:47:32;;;;;;;12.43;8.68;;;;;;;22.22;55.42;98964.09;5112371;28;20027;-67
2021/07/06 03:49:58;;;;;;;17.65;9.32;;;;;;;22.34;55.37;98964.75;5112179;28;20020;-67
2021/07/06 03:52:23;;;;;;;22.33;11.43;;;;;;;22.35;55.45;98964.31;5113910;28;20036;-70
2021/07/06 03:54:49;;;;;;;20.48;11.50;;;;;;;22.40;55.35;98957.34;5113652;28;20111;-69
2021/07/06 03:57:14;;;;;;;13.07;9.60;;;;;;;22.48;54.95;98969.44;5113532;28;20023;-69
2021/07/06 03:59:40;;;;;;;18.25;9.48;;;;;;;22.40;55.26;98960.19;5106478;28;20405;-70
2021/07/06 04:02:05;;;;;;;11.25;9.13;;;;;;;22.44;55.28;98973.16;5112937;28;20084;-73
2021/07/06 04:04:32;;;;;;;12.80;8.23;;;;;;;22.53;54.99;98975.50;5112899;28;20023;-72
2021/07/06 04:06:57;;;;;;;10.15;8.25;;;;;;;22.58;54.75;98972.19;5113061;28;20028;-70
2021/07/06 04:09:23;;;;;;;14.80;7.93;;;;;;;22.67;54.81;98976.50;5111830;28;20028;-76
2021/07/06 04:11:48;;;;;;;9.88;7.75;;;;;;;22.77;54.51;98977.59;5107883;28;20035;-68
2021/07/06 04:14:14;;;;;;;10.02;8.13;;;;;;;22.76;54.43;98984.53;5113215;27;20124;-70
2021/07/06 04:16:39;;;;;;;11.30;8.35;;;;;;;22.60;55.13;98988.81;5113160;28;20089;-75
2021/07/06 04:19:08;;;;;;;55.40;10.55;;;;;;;22.82;54.21;98986.47;5110447;28;20541;-69
2021/07/06 04:21:34;;;;;;;11.07;7.97;;;;;;;22.88;54.16;98988.81;5105183;28;20096;-70
2021/07/06 04:24:00;;;;;;;10.82;8.10;;;;;;;22.86;54.13;98990.06;5112954;28;20022;-71
2021/07/06 04:26:26;;;;;;;9.50;7.45;;;;;;;22.97;53.72;98989.09;5110736;28;20028;-75
2021/07/06 04:28:51;;;;;;;10.45;9.40;;;;;;;23.03;54.01;98986.56;5110032;28;20592;-72
2021/07/06 04:31:17;;;;;;;13.25;7.60;;;;;;;23.07;53.83;99005.22;5109240;28;20398;-71
2021/07/06 04:33:42;;;;;;;11.63;8.60;;;;;;;23.00;53.91;98999.63;5110739;28;20031;-72
2021/07/06 04:36:08;;;;;;;12.88;8.05;;;;;;;22.85;54.57;98999.03;5104777;28;20036;-73
2021/07/06 04:38:33;;;;;;;13.88;8.43;;;;;;;22.88;54.68;99003.09;5104134;28;20028;-71
2021/07/06 04:40:58;;;;;;;8.27;7.47;;;;;;;23.05;54.19;99006.88;5110529;28;20336;-71
2021/07/06 04:43:24;;;;;;;11.85;7.60;;;;;;;23.07;53.45;99010.13;5111197;28;20096;-72
2021/07/06 04:45:49;;;;;;;18.58;8.40;;;;;;;23.12;52.90;99001.88;5102118;28;20038;-72
2021/07/06 04:48:15;;;;;;;13.75;8.20;;;;;;;23.18;52.92;99013.59;5110803;28;20031;-72
2021/07/06 04:50:40;;;;;;;17.73;8.63;;;;;;;23.20;52.61;99013.19;5111415;28;20469;-72
2021/07/06 04:53:07;;;;;;;21.50;8.43;;;;;;;23.24;53.20;99017.59;5112274;28;20032;-72
2021/07/06 04:55:35;;;;;;;19.33;8.65;;;;;;;23.38;52.51;99018.59;5110539;28;20023;-72
2021/07/06 04:58:00;;;;;;;29.17;9.45;;;;;;;23.46;52.22;99016.44;5109768;28;20055;-72
2021/07/06 05:00:26;;;;;;;9.02;8.02;;;;;;;23.54;51.95;99015.88;5112635;28;20470;-72
2021/07/06 05:02:51;;;;;;;11.13;7.13;;;;;;;23.41;51.76;99017.72;5112533;28;20031;-71
2021/07/06 05:05:17;;;;;;;10.30;7.68;;;;;;;23.45;51.86;99023.38;5108308;27;20106;-71
2021/07/06 05:07:42;;;;;;;9.05;7.68;;;;;;;23.54;51.32;99015.06;5110581;28;20481;-72
2021/07/06 05:10:10;;;;;;;8.63;7.75;;;;;;;23.46;51.80;99025.78;5108724;28;20501;-71
2021/07/06 05:12:36;;;;;;;8.38;7.07;;;;;;;23.46;51.33;99027.84;5105305;28;20476;-72
2021/07/06 05:15:04;;;;;;;8.68;7.22;;;;;;;23.43;50.86;99026.66;5108373;28;20296;-69
2021/07/06 05:17:29;;;;;;;9.40;7.60;;;;;;;23.71;51.07;99027.38;5107957;28;20043;-71
2021/07/06 05:19:55;;;;;;;15.43;8.43;;;;;;;23.83;51.01;99031.66;5109789;28;20024;-71
2021/07/06 05:22:21;;;;;;;19.60;7.55;;;;;;;23.88;50.46;99031.13;5109579;28;20115;-67
2021/07/06 05:24:47;;;;;;;21.30;8.45;;;;;;;23.97;50.02;99030.59;5111363;28;20027;-73
2021/07/06 05:27:15;;;;;;;8.65;7.70;;;;;;;24.00;49.89;99031.75;5112091;28;20039;-72
2021/07/06 05:29:41;;;;;;;18.58;8.48;;;;;;;24.10;50.22;99036.47;5110251;28;20103;-72
2021/07/06 05:32:07;;;;;;;19.25;8.63;;;;;;;24.14;50.54;99042.94;5110701;28;20146;-71
2021/07/06 05:34:32;;;;;;;16.85;8.50;;;;;;;24.23;49.38;99043.13;5110278;28;20082;-72
2021/07/06 05:36:58;;;;;;;12.05;8.40;;;;;;;24.32;49.22;99050.31;5111325;28;20027;-71
2021/07/06 05:39:24;;;;;;;12.38;9.15;;;;;;;24.45;49.43;99048.41;5111258;28;20030;-72
2021/07/06 05:41:50;;;;;;;13.30;8.48;;;;;;;24.37;48.84;99050.59;5094439;28;20232;-72
2021/07/06 05:44:16;;;;;;;21.10;7.95;;;;;;;24.48;49.60;99052.44;5109539;28;20027;-71
2021/07/06 05:46:41;;;;;;;14.63;8.07;;;;;;;24.53;49.76;99055.59;5108099;28;20516;-71
2021/07/06 05:49:07;;;;;;;12.50;8.60;;;;;;;24.63;49.27;99056.59;5109096;28;20027;-71
2021/07/06 05:51:33;;;;;;;8.65;7.82;;;;;;;24.74;47.82;99046.97;5109580;28;20302;-71
2021/07/06 05:53:58;;;;;;;14.95;8.07;;;;;;;24.86;48.69;99051.22;5104508;28;20035;-71
2021/07/06 05:56:24;;;;;;;17.92;8.10;;;;;;;25.01;47.68;99043.94;5108870;28;20028;-71
2021/07/06 05:58:49;;;;;;;10.13;7.65;;;;;;;25.13;47.69;99050.22;5106919;28;20024;-72
2021/07/06 06:01:16;;;;;;;14.68;7.80;;;;;;;25.22;47.21;99053.25;5110223;28;20040;-72
2021/07/06 06:03:42;;;;;;;7.95;7.15;;;;;;;25.13;47.00;99053.06;5108622;28;20072;-72
2021/07/06 06:06:08;;;;;;;9.23;7.10;;;;;;;25.25;47.33;99052.34;5108665;28;20126;-72
2021/07/06 06:08:36;;;;;;;9.07;7.13;;;;;;;25.35;46.18;99056.19;5108870;28;20123;-71
2021/07/06 06:11:05;;;;;;;10.55;6.82;;;;;;;25.41;45.97;99056.47;5109508;28;20436;-72
2021/07/06 06:13:31;;;;;;;16.17;7.53;;;;;;;25.55;46.51;99050.41;5111488;28;20023;-71
2021/07/06 06:15:56;;;;;;;10.90;6.85;;;;;;;25.68;46.14;99055.41;5110960;28;20545;-72
2021/07/06 06:18:22;;;;;;;14.27;7.70;;;;;;;25.67;46.05;99059.53;5110047;28;20110;-72
2021/07/06 06:20:47;;;;;;;11.85;7.10;;;;;;;25.79;45.29;99055.91;5109733;28;20028;-71
2021/07/06 06:23:13;;;;;;;8.20;7.28;;;;;;;25.85;45.40;99062.72;5110853;28;20024;-71
2021/07/06 06:25:38;;;;;;;13.35;6.35;;;;;;;25.90;45.21;99058.50;5109809;28;20425;-72
2021/07/06 06:28:04;;;;;;;10.48;7.30;;;;;;;25.98;44.93;99057.03;5109162;28;20031;-71
2021/07/06 06:30:29;;;;;;;7.75;6.90;;;;;;;26.12;45.96;99060.75;5110902;28;20027;-71
2021/07/06 06:32:55;;;;;;;15.48;7.05;;;;;;;26.27;43.99;99052.59;5111170;28;20114;-72
2021/07/06 06:35:22;;;;;;;14.88;7.10;;;;;;;26.39;43.67;99045.31;5104033;28;20081;-72
2021/07/06 06:37:47;;;;;;;12.88;6.05;;;;;;;26.45;43.57;99044.28;5107065;28;20031;-71
2021/07/06 06:40:13;;;;;;;13.10;6.55;;;;;;;26.61;43.59;99048.31;5104063;28;20036;-71
2021/07/06 06:42:40;;;;;;;10.57;6.65;;;;;;;26.58;42.47;99049.25;5102124;28;20060;-70
2021/07/06 06:45:07;;;;;;;13.65;7.57;;;;;;;26.70;43.02;99045.59;5110534;28;20019;-71
2021/07/06 06:47:33;;;;;;;9.60;6.32;;;;;;;26.71;41.92;99044.34;5110995;28;20497;-72
2021/07/06 06:49:59;;;;;;;7.15;5.18;;;;;;;26.82;41.75;99043.19;5110457;28;20385;-72
2021/07/06 06:52:24;;;;;;;8.23;5.82;;;;;;;27.00;41.87;99031.97;5108934;28;20046;-72
2021/07/06 06:54:50;;;;;;;9.40;5.55;;;;;;;26.99;41.12;99036.09;5107856;28;20168;-72
2021/07/06 06:57:15;;;;;;;11.20;5.80;;;;;;;26.96;41.79;99033.34;5109167;28;20049;-73
2021/07/06 06:59:41;;;;;;;8.43;5.55;;;;;;;27.11;41.55;99037.38;5110830;28;20518;-72
2021/07/06 07:02:22;;;;;;;33.53;6.78;;;;;;;27.24;41.02;99027.97;5110554;28;20028;-72
2021/07/06 07:04:49;;;;;;;8.98;5.80;;;;;;;27.18;40.15;99024.88;5109335;28;20212;-72
2021/07/06 07:07:16;;;;;;;12.13;5.28;;;;;;;27.28;40.13;99029.44;5108876;28;20181;-72
2021/07/06 07:09:42;;;;;;;12.68;5.00;;;;;;;27.43;40.44;99023.22;5110567;28;20024;-72
2021/07/06 07:12:08;;;;;;;13.93;5.57;;;;;;;27.40;39.90;99027.03;5110501;28;20027;-71
2021/07/06 07:14:35;;;;;;;5.68;5.13;;;;;;;27.43;40.15;99020.34;5110293;28;20031;-72
2021/07/06 07:17:01;;;;;;;14.75;5.32;;;;;;;27.48;40.56;99025.50;5109172;28;20039;-72
2021/07/06 07:19:26;;;;;;;7.22;4.78;;;;;;;27.57;39.66;99025.63;5110311;28;20070;-72
2021/07/06 07:21:52;;;;;;;5.82;4.93;;;;;;;27.72;39.16;99028.81;5101417;28;20048;-72
2021/07/06 07:24:17;;;;;;;5.18;4.68;;;;;;;27.68;39.18;99028.09;5103367;28;20036;-70
2021/07/06 07:26:43;;;;;;;12.73;6.25;;;;;;;27.82;39.50;99023.16;5103157;28;20050;-71
2021/07/06 07:29:09;;;;;;;7.45;4.63;;;;;;;27.97;39.20;99020.53;5102792;28;20053;-71
2021/07/06 07:31:34;;;;;;;9.50;5.57;;;;;;;27.81;39.41;99019.47;5108479;28;20039;-71
2021/07/06 07:33:59;;;;;;;13.57;5.60;;;;;;;27.92;39.75;99013.31;5103719;28;20021;-70
2021/07/06 07:36:26;;;;;;;7.30;4.57;;;;;;;27.90;39.27;99015.84;5109802;28;20435;-71
2021/07/06 07:38:52;;;;;;;17.30;5.50;;;;;;;27.86;39.06;99020.94;5109415;28;20548;-70
2021/07/06 07:41:17;;;;;;;5.63;5.10;;;;;;;28.20;39.62;99021.38;5112012;28;20043;-71
2021/07/06 07:43:42;;;;;;;6.28;5.03;;;;;;;28.14;37.93;99024.84;5113890;27;20508;-70
2021/07/06 07:46:08;;;;;;;11.93;5.47;;;;;;;28.24;39.27;99022.84;5111740;28;20404;-70
2021/07/06 07:48:33;;;;;;;6.97;5.65;;;;;;;28.16;38.06;99022.28;5112148;28;20031;-70
2021/07/06 07:50:59;;;;;;;8.23;5.95;;;;;;;28.36;38.84;99021.19;5111977;28;20031;-72
2021/07/06 07:53:24;;;;;;;7.93;4.75;;;;;;;28.29;37.76;99022.25;5113148;28;20100;-70
2021/07/06 07:55:52;;;;;;;12.20;5.22;;;;;;;28.56;37.75;99008.50;5112436;28;20020;-70
2021/07/06 07:58:17;;;;;;;9.40;5.28;;;;;;;28.49;38.93;99011.69;5113351;28;20050;-70
2021/07/06 08:00:43;;;;;;;16.55;5.95;;;;;;;28.76;38.02;99015.97;5113176;28;20485;-72
2021/07/06 08:03:08;;;;;;;9.82;5.35;;;;;;;28.82;37.96;99020.66;5113055;28;20028;-70
2021/07/06 08:05:34;;;;;;;14.95;4.75;;;;;;;28.85;37.94;99013.19;5111605;28;20056;-70
2021/07/06 08:07:59;;;;;;;8.07;4.85;;;;;;;29.06;37.74;99017.25;5111881;28;20036;-68
2021/07/06 08:10:25;;;;;;;22.00;6.45;;;;;;;29.00;36.50;99019.13;5112931;28;20412;-68
2021/07/06 08:12:50;;;;;;;7.85;4.55;;;;;;;28.95;37.38;99019.75;5110893;28;20063;-70
2021/07/06 08:15:16;;;;;;;7.45;4.95;;;;;;;29.13;36.92;99022.69;5112864;28;20020;-69
2021/07/06 08:17:42;;;;;;;9.88;5.10;;;;;;;29.17;37.14;99025.44;5113279;28;20043;-71
2021/07/06 08:20:09;;;;;;;7.15;4.57;;;;;;;29.18;36.13;99017.59;5112795;28;20023;-72
2021/07/06 08:22:35;;;;;;;6.05;5.25;;;;;;;29.46;36.69;99014.81;5111253;28;20036;-72
2021/07/06 08:25:01;;;;;;;7.70;4.45;;;;;;;29.53;35.92;99023.16;5112775;28;20038;-72
2021/07/06 08:27:27;;;;;;;9.95;4.47;;;;;;;29.44;36.13;99017.38;5114193;27;20031;-72
2021/07/06 08:29:52;;;;;;;6.60;4.97;;;;;;;29.40;35.17;99020.38;5112852;28;20106;-72
2021/07/06 08:32:18;;;;;;;6.45;5.07;;;;;;;29.50;34.78;99018.34;5107806;28;20082;-72
2021/07/06 08:34:43;;;;;;;8.27;4.55;;;;;;;29.36;35.65;99025.50;5109196;28;20019;-72
2021/07/06 08:37:09;;;;;;;5.15;4.60;;;;;;;29.41;35.90;99030.63;5112230;28;20038;-72
2021/07/06 08:39:35;;;;;;;5.97;4.63;;;;;;;29.67;35.08;99013.91;5099388;28;20134;-72
2021/07/06 08:42:01;;;;;;;5.55;4.25;;;;;;;29.66;34.82;99011.47;5112543;28;20058;-72
2021/07/06 08:44:27;;;;;;;11.82;4.47;;;;;;;29.67;35.12;98999.50;5111382;28;20011;-72
2021/07/06 08:46:56;;;;;;;8.82;4.88;;;;;;;29.80;34.84;99005.09;5107144;28;20504;-72
2021/07/06 08:49:22;;;;;;;6.93;4.63;;;;;;;29.95;35.02;99016.00;5107397;28;20497;-72
2021/07/06 08:51:50;;;;;;;9.48;5.03;;;;;;;30.03;34.28;99011.47;5111402;28;20036;-72
2021/07/06 08:54:16;;;;;;;4.93;4.43;;;;;;;29.61;34.41;99020.78;5110371;28;20053;-71
2021/07/06 08:56:42;;;;;;;8.13;4.53;;;;;;;29.79;34.77;99017.88;5107950;28;20036;-71
2021/07/06 08:59:07;;;;;;;7.95;4.38;;;;;;;29.85;33.43;99012.28;5110374;28;20491;-72
2021/07/06 09:01:33;;;;;;;7.53;4.18;;;;;;;29.96;33.78;99017.59;5108838;28;20484;-71
2021/07/06 09:04:03;;;;;;;4.65;4.15;;;;;;;30.07;32.50;99017.94;5110122;28;20416;-72
2021/07/06 09:06:31;;;;;;;7.80;4.10;;;;;;;30.31;33.18;99010.69;5098298;27;20027;-72
2021/07/06 09:09:17;;;;;;;4.63;3.75;;;;;;;30.56;32.39;99009.53;5110274;28;20020;-72
2021/07/06 09:11:47;;;;;;;9.95;4.28;;;;;;;30.77;32.60;99018.44;5110657;28;20429;-72
2021/07/06 09:14:13;;;;;;;4.57;4.10;;;;;;;30.70;31.76;99010.94;5110038;28;20023;-72
2021/07/06 09:16:39;;;;;;;5.28;4.70;;;;;;;30.53;31.99;99019.16;5099669;28;20500;-72
2021/07/06 09:19:25;;;;;;;5.53;3.88;;;;;;;30.50;32.38;99020.09;5109869;28;20118;-70
2021/07/06 09:22:12;;;;;;;8.18;3.92;;;;;;;30.82;30.81;99012.03;5099788;28;20027;-71
2021/07/06 09:24:38;;;;;;;14.55;4.97;;;;;;;31.06;31.95;99020.72;5105412;28;20034;-71
2021/07/06 09:27:28;;;;;;;5.25;3.63;;;;;;;31.33;30.40;99009.56;5109834;28;20024;-71
2021/07/06 09:30:05;;;;;;;5.57;3.58;;;;;;;31.20;30.86;99012.66;5109474;28;20081;-74
2021/07/06 09:32:32;;;;;;;3.72;3.42;;;;;;;31.26;30.44;99015.72;5109485;28;20434;-72
2021/07/06 09:35:16;;;;;;;5.18;4.45;;;;;;;31.48;31.60;99018.31;5109870;28;20027;-73
2021/07/06 09:38:03;;;;;;;5.10;3.92;;;;;;;31.64;30.25;99023.63;5109001;28;20048;-74
2021/07/06 09:40:32;;;;;;;5.05;4.07;;;;;;;31.87;30.81;99006.00;5051868;28;20036;-74
2021/07/06 09:43:16;;;;;;;8.98;3.58;;;;;;;32.13;30.48;99000.47;5056242;28;20455;-72
2021/07/06 09:45:59;;;;;;;6.60;3.65;;;;;;;32.29;29.22;98998.41;5053052;28;20040;-73
2021/07/06 09:48:24;;;;;;;5.15;3.45;;;;;;;32.47;29.49;99004.00;5049203;28;20021;-73
2021/07/06 09:50:50;;;;;;;5.72;4.03;;;;;;;32.06;29.25;99013.22;5035868;28;20041;-72
2021/07/06 09:53:26;;;;;;;7.82;4.28;;;;;;;32.17;29.36;99006.06;5055196;28;20041;-74
2021/07/06 09:55:51;;;;;;;6.47;4.45;;;;;;;32.20;29.55;99002.97;5049456;28;20529;-72
2021/07/06 09:58:17;;;;;;;4.18;3.78;;;;;;;32.29;29.72;99013.66;5049484;28;20064;-73
2021/07/06 10:00:42;;;;;;;8.40;4.85;;;;;;;32.30;30.82;99003.66;5050581;28;20068;-73
2021/07/06 10:03:09;;;;;;;8.30;5.72;;;;;;;31.88;31.05;99007.59;5040086;28;20451;-74
2021/07/06 10:05:35;;;;;;;7.25;3.70;;;;;;;31.90;30.46;99005.00;5050221;28;20045;-77
2021/07/06 10:08:01;;;;;;;6.53;4.32;;;;;;;31.68;29.00;99013.97;5038393;28;20524;-71
2021/07/06 10:10:27;;;;;;;3.95;3.38;;;;;;;31.83;29.98;98999.59;5059494;28;20119;-71
2021/07/06 10:12:53;;;;;;;6.95;5.00;;;;;;;32.08;30.38;99010.63;5111343;28;20037;-72
2021/07/06 10:15:21;;;;;;;8.70;4.45;;;;;;;31.90;29.97;99010.78;5109167;28;20016;-72
2021/07/06 10:17:49;;;;;;;5.63;4.13;;;;;;;31.73;30.23;99002.53;5107933;28;20041;-72
2021/07/06 10:20:21;;;;;;;5.13;4.05;;;;;;;32.00;29.85;98997.88;5103369;28;20035;-72
2021/07/06 10:22:54;;;;;;;5.93;3.92;;;;;;;32.25;29.22;98992.81;5106334;28;20424;-71
2021/07/06 10:25:25;;;;;;;4.80;4.15;;;;;;;32.41;29.40;98996.53;5101696;28;20048;-72
2021/07/06 10:27:54;;;;;;;4.85;3.53;;;;;;;32.47;29.96;98994.53;5102046;28;20052;-71
2021/07/06 10:30:23;;;;;;;8.27;4.30;;;;;;;32.23;29.81;98989.63;5110491;28;20427;-71
2021/07/06 10:32:51;;;;;;;4.13;3.67;;;;;;;32.28;29.19;98988.09;5110647;28;20874;-71
2021/07/06 10:35:37;;;;;;;4.70;3.85;;;;;;;32.39;30.81;98981.75;5109163;28;20065;-71
2021/07/06 10:38:33;;;;;;;5.00;4.53;;;;;;;32.38;30.07;98980.94;5105311;28;20028;-71
2021/07/06 10:41:05;;;;;;;12.50;4.97;;;;;;;32.04;30.24;98981.09;5109454;28;20036;-71
2021/07/06 10:43:42;;;;;;;4.55;3.92;;;;;;;31.88;31.80;98985.25;5110321;28;20050;-71
2021/07/06 10:46:20;;;;;;;7.13;4.25;;;;;;;32.12;31.54;98972.84;5104243;28;20032;-71
2021/07/06 10:49:09;;;;;;;10.93;4.50;;;;;;;32.37;30.30;98978.56;5110114;27;20601;-71
2021/07/06 10:51:34;;;;;;;6.55;4.53;;;;;;;32.52;30.05;98972.75;5110289;28;20035;-71
2021/07/06 10:54:06;;;;;;;6.85;4.05;;;;;;;32.53;29.53;98966.50;5108845;28;20038;-71
2021/07/06 10:56:37;;;;;;;7.75;3.63;;;;;;;32.68;30.00;98968.56;5107547;28;20055;-71
2021/07/06 10:59:06;;;;;;;4.15;3.85;;;;;;;32.67;29.85;98966.97;5108037;28;20036;-71
2021/07/06 11:01:37;;;;;;;4.85;4.25;;;;;;;32.56;29.02;98968.38;5110398;28;20039;-71
2021/07/06 11:04:11;;;;;;;5.80;3.78;;;;;;;32.45;27.90;98968.19;5105354;28;20043;-71
2021/07/06 11:06:54;;;;;;;4.80;4.40;;;;;;;32.66;29.28;98969.09;5101418;28;20034;-71
2021/07/06 11:09:29;;;;;;;8.95;4.68;;;;;;;32.93;29.21;98951.88;5109521;27;20016;-70
2021/07/06 11:12:17;;;;;;;6.82;4.55;;;;;;;33.07;28.96;98956.84;5103121;28;20039;-71
2021/07/06 11:14:47;;;;;;;6.78;4.60;;;;;;;32.77;29.65;98959.78;5117383;27;20082;-71
2021/07/06 11:17:12;;;;;;;;;;;;;;;32.46;29.33;98959.00;5108590;28;20061;-71
2021/07/06 11:19:39;;;;;;;6.53;4.10;;;;;;;32.55;30.81;98954.44;5114010;28;20002;-71
2021/07/06 11:22:13;;;;;;;5.78;3.95;;;;;;;32.52;29.47;98961.19;5111539;28;20497;-71
2021/07/06 11:24:45;;;;;;;5.32;4.80;;;;;;;32.52;29.37;98953.31;5111192;28;20423;-71
2021/07/06 11:27:48;;;;;;;5.53;4.43;;;;;;;32.57;29.57;98958.38;5113748;28;20169;-71
2021/07/06 11:30:46;;;;;;;4.55;3.47;;;;;;;32.54;29.25;98949.94;5106591;28;20077;-71
2021/07/06 11:33:17;;;;;;;6.25;4.47;;;;;;;32.54;29.46;98961.50;5124564;27;20562;-71